Time;durP1;ratioP1;P1;durP2;ratioP2;P2;SDS_P1;SDS_P2;PMS_P1;PMS_P2;Temp;Humidity;BMP_temperature;BMP_pressure;BME280_temperature;BME280_humidity;BME280_pressure;Samples;Min_cycle;Max_cycle;Signal;HPM_P1;HPM_P2
2021/03/29 00:01:04;;;;;;;5.00;2.20;;;6.70;99.90;;;;;;1857356;76;21089;-76
2021/03/29 00:03:30;;;;;;;2.83;1.52;;;6.60;99.90;;;;;;1860571;75;21093;-76
2021/03/29 00:05:56;;;;;;;1.77;1.37;;;6.50;99.90;;;;;;1857772;75;21090;-75
2021/03/29 00:08:22;;;;;;;2.85;1.72;;;6.50;99.90;;;;;;1852838;75;21175;-76
2021/03/29 00:10:49;;;;;;;3.52;1.65;;;6.40;99.90;;;;;;1853362;75;21058;-75
2021/03/29 00:13:15;;;;;;;4.97;1.90;;;6.50;99.90;;;;;;1855247;76;21066;-74
2021/03/29 00:15:42;;;;;;;5.92;1.62;;;6.40;99.90;;;;;;1853452;75;21085;-75
2021/03/29 00:18:08;;;;;;;3.47;1.55;;;6.50;99.90;;;;;;1860934;75;21139;-76
2021/03/29 00:20:34;;;;;;;2.70;1.40;;;6.40;99.90;;;;;;1867448;75;21097;-76
2021/03/29 00:23:00;;;;;;;6.78;1.57;;;6.40;99.90;;;;;;1850812;75;21085;-76
2021/03/29 00:25:26;;;;;;;2.50;1.50;;;6.50;99.90;;;;;;1854068;76;21510;-76
2021/03/29 00:27:52;;;;;;;3.72;1.70;;;6.50;99.90;;;;;;1854671;75;21497;-76
2021/03/29 00:30:18;;;;;;;5.83;1.32;;;6.50;99.90;;;;;;1856535;76;21074;-75
2021/03/29 00:32:44;;;;;;;6.55;1.80;;;6.50;99.90;;;;;;1855588;75;21081;-75
2021/03/29 00:35:11;;;;;;;1.57;1.20;;;6.50;99.90;;;;;;1853660;77;21162;-75
2021/03/29 00:37:37;;;;;;;1.87;1.55;;;6.50;99.90;;;;;;1847653;76;21093;-75
2021/03/29 00:40:03;;;;;;;3.90;1.65;;;6.40;99.90;;;;;;1863112;76;21074;-76
2021/03/29 00:42:29;;;;;;;3.83;1.42;;;6.40;99.90;;;;;;1856941;75;21187;-76
2021/03/29 00:44:55;;;;;;;1.90;1.42;;;6.30;99.90;;;;;;1855167;75;21211;-75
2021/03/29 00:47:21;;;;;;;2.30;1.37;;;6.30;99.90;;;;;;1851222;76;21147;-76
2021/03/29 00:49:47;;;;;;;4.20;1.40;;;6.30;99.90;;;;;;1850326;76;21089;-76
2021/03/29 00:52:13;;;;;;;2.45;1.45;;;6.30;99.90;;;;;;1852499;75;21152;-76
2021/03/29 00:54:40;;;;;;;4.17;1.50;;;6.40;99.90;;;;;;1854136;76;21093;-76
2021/03/29 00:57:06;;;;;;;4.35;1.27;;;6.40;99.90;;;;;;1853487;75;21234;-75
2021/03/29 00:59:32;;;;;;;4.37;1.75;;;6.40;99.90;;;;;;1881893;75;21053;-76
2021/03/29 01:01:58;;;;;;;3.10;1.67;;;6.30;99.90;;;;;;1879816;74;21084;-75
2021/03/29 01:04:24;;;;;;;4.05;1.67;;;6.40;99.90;;;;;;1881586;74;21096;-75
2021/03/29 01:06:50;;;;;;;5.22;2.00;;;6.40;99.90;;;;;;1878376;75;21183;-75
2021/03/29 01:09:21;;;;;;;4.25;1.62;;;6.20;99.90;;;;;;1881821;74;21084;-75
2021/03/29 01:11:44;;;;;;;4.87;2.25;;;6.10;99.90;;;;;;1879174;75;21080;-75
2021/03/29 01:14:10;;;;;;;4.67;1.67;;;6.20;99.90;;;;;;1876989;74;21089;-74
2021/03/29 01:16:36;;;;;;;8.60;1.87;;;6.20;99.90;;;;;;1877494;74;21085;-75
2021/03/29 01:19:03;;;;;;;3.65;1.72;;;6.20;99.90;;;;;;1879161;74;21053;-75
2021/03/29 01:21:29;;;;;;;3.02;1.30;;;6.20;99.90;;;;;;1879130;75;21155;-74
2021/03/29 01:23:55;;;;;;;4.67;1.50;;;6.20;99.90;;;;;;1883814;74;21088;-75
2021/03/29 01:26:21;;;;;;;3.08;1.60;;;6.20;99.90;;;;;;1878586;74;21096;-74
2021/03/29 01:28:47;;;;;;;5.95;1.65;;;6.20;99.90;;;;;;1880948;74;21488;-75
2021/03/29 01:31:13;;;;;;;4.78;2.00;;;6.10;99.90;;;;;;1877831;75;21450;-75
2021/03/29 01:33:39;;;;;;;2.50;1.22;;;6.10;99.90;;;;;;1881884;74;21514;-75
2021/03/29 01:36:05;;;;;;;11.63;1.67;;;6.00;99.90;;;;;;1878670;74;21150;-74
2021/03/29 01:38:32;;;;;;;3.52;1.95;;;5.80;99.90;;;;;;1877640;75;21158;-76
2021/03/29 01:40:58;;;;;;;4.95;2.02;;;5.90;99.90;;;;;;1877870;75;21127;-75
2021/03/29 01:43:24;;;;;;;2.42;1.40;;;5.80;99.90;;;;;;1879801;75;21150;-75
2021/03/29 01:45:50;;;;;;;2.00;1.45;;;5.80;99.90;;;;;;1876723;74;21166;-75
2021/03/29 01:48:16;;;;;;;9.08;1.40;;;5.80;99.90;;;;;;1882545;75;21049;-74
2021/03/29 01:50:43;;;;;;;3.87;2.00;;;5.80;99.90;;;;;;1879909;74;21528;-75
2021/03/29 01:53:09;;;;;;;2.40;1.67;;;5.70;99.90;;;;;;1876783;74;21469;-75
2021/03/29 01:55:35;;;;;;;3.72;1.70;;;5.70;99.90;;;;;;1877752;74;21489;-74
2021/03/29 01:58:01;;;;;;;6.75;2.17;;;5.60;99.90;;;;;;1876584;75;21300;-75
2021/03/29 02:00:27;;;;;;;2.65;1.32;;;5.50;99.90;;;;;;1876785;74;21138;-75
2021/03/29 02:02:53;;;;;;;3.00;1.75;;;5.50;99.90;;;;;;1881891;74;21076;-75
2021/03/29 02:05:19;;;;;;;5.85;1.75;;;5.40;99.90;;;;;;1876848;75;21049;-75
2021/03/29 02:07:45;;;;;;;2.70;1.65;;;5.40;99.90;;;;;;1876830;75;21133;-75
2021/03/29 02:10:12;;;;;;;1.65;1.27;;;5.50;99.90;;;;;;1877707;74;21077;-75
2021/03/29 02:12:38;;;;;;;2.92;1.80;;;5.50;99.90;;;;;;1880354;75;21155;-75
2021/03/29 02:15:04;;;;;;;6.65;1.98;;;5.40;99.90;;;;;;1881545;75;21088;-75
2021/03/29 02:17:30;;;;;;;7.30;2.08;;;5.30;99.90;;;;;;1876775;75;21080;-75
2021/03/29 02:19:56;;;;;;;8.13;2.08;;;5.30;99.90;;;;;;1876748;75;21170;-75
2021/03/29 02:22:22;;;;;;;10.98;1.72;;;5.20;99.90;;;;;;1877633;75;21050;-75
2021/03/29 02:24:48;;;;;;;5.62;1.82;;;5.20;99.90;;;;;;1878619;75;21158;-75
2021/03/29 02:27:14;;;;;;;2.05;1.62;;;5.10;99.90;;;;;;1878604;75;21508;-75
2021/03/29 02:29:40;;;;;;;10.25;1.70;;;5.00;99.90;;;;;;1879706;74;21481;-75
2021/03/29 02:32:07;;;;;;;3.12;1.55;;;5.10;99.90;;;;;;1878050;75;21517;-74
2021/03/29 02:34:33;;;;;;;2.33;1.25;;;5.10;99.90;;;;;;1879547;75;21084;-74
2021/03/29 02:36:59;;;;;;;8.40;1.98;;;5.00;99.90;;;;;;1878628;74;21146;-74
2021/03/29 02:39:25;;;;;;;11.18;1.60;;;5.00;99.90;;;;;;1878452;74;21049;-75
2021/03/29 02:41:51;;;;;;;3.15;1.40;;;4.90;99.90;;;;;;1877647;74;21077;-74
2021/03/29 02:44:17;;;;;;;1.82;1.50;;;5.00;99.90;;;;;;1877747;75;21082;-74
2021/03/29 02:46:43;;;;;;;2.15;1.65;;;5.00;99.90;;;;;;1877729;75;21065;-74
2021/03/29 02:49:09;;;;;;;6.37;2.22;;;5.00;99.90;;;;;;1877513;75;21074;-74
2021/03/29 02:51:36;;;;;;;3.05;1.72;;;5.00;99.90;;;;;;1878298;75;21077;-74
2021/03/29 02:54:02;;;;;;;3.50;1.90;;;4.90;99.90;;;;;;1877150;75;21077;-74
2021/03/29 02:56:28;;;;;;;3.42;1.60;;;5.00;99.90;;;;;;1880523;75;21097;-74
2021/03/29 02:58:54;;;;;;;6.40;1.55;;;4.90;99.90;;;;;;1876898;75;21043;-74
2021/03/29 03:01:20;;;;;;;4.58;1.77;;;4.90;99.90;;;;;;1878072;75;21081;-74
2021/03/29 03:03:46;;;;;;;3.58;1.90;;;4.90;99.90;;;;;;1879423;75;21073;-74
2021/03/29 03:06:12;;;;;;;3.40;2.00;;;4.90;99.90;;;;;;1879187;75;21143;-74
2021/03/29 03:08:38;;;;;;;1.98;1.50;;;4.90;99.90;;;;;;1878218;75;21073;-74
2021/03/29 03:11:05;;;;;;;3.80;1.77;;;4.80;99.90;;;;;;1876861;75;21204;-74
2021/03/29 03:13:31;;;;;;;3.33;1.45;;;4.70;99.90;;;;;;1878220;75;21139;-74
2021/03/29 03:15:57;;;;;;;2.83;1.40;;;4.70;99.90;;;;;;1879219;75;21078;-74
2021/03/29 03:18:23;;;;;;;3.47;1.70;;;4.70;99.90;;;;;;1877058;75;21054;-74
2021/03/29 03:20:49;;;;;;;2.87;1.80;;;4.60;99.90;;;;;;1877762;75;21039;-74
2021/03/29 03:23:15;;;;;;;2.35;1.75;;;4.50;99.90;;;;;;1876812;75;21135;-74
2021/03/29 03:25:41;;;;;;;6.85;3.00;;;4.50;99.90;;;;;;1877351;75;21127;-74
2021/03/29 03:28:07;;;;;;;2.85;1.52;;;4.50;99.90;;;;;;1878707;75;21087;-74
2021/03/29 03:30:34;;;;;;;3.83;2.10;;;4.50;99.90;;;;;;1878253;75;21085;-74
2021/03/29 03:33:00;;;;;;;2.60;1.72;;;4.50;99.90;;;;;;1877724;75;21078;-75
2021/03/29 03:35:26;;;;;;;2.87;1.60;;;4.50;99.90;;;;;;1878202;75;21081;-74
2021/03/29 03:37:52;;;;;;;6.40;2.00;;;4.50;99.90;;;;;;1877671;75;21074;-73
2021/03/29 03:40:18;;;;;;;3.40;1.75;;;4.50;99.90;;;;;;1880042;75;21046;-74
2021/03/29 03:42:44;;;;;;;1.45;1.20;;;4.50;99.90;;;;;;1876814;75;21046;-75
2021/03/29 03:45:10;;;;;;;1.37;1.27;;;4.40;99.90;;;;;;1878875;75;21046;-75
2021/03/29 03:47:36;;;;;;;7.75;1.92;;;4.30;99.90;;;;;;1876821;75;21077;-74
2021/03/29 03:50:03;;;;;;;8.45;2.10;;;4.30;99.90;;;;;;1880075;75;21077;-74
2021/03/29 03:52:29;;;;;;;2.98;1.62;;;4.30;99.90;;;;;;1876852;75;21081;-73
2021/03/29 03:54:55;;;;;;;4.10;1.50;;;4.30;99.90;;;;;;1876900;75;21148;-73
2021/03/29 03:57:21;;;;;;;5.33;1.45;;;4.20;99.90;;;;;;1877327;75;21144;-73
2021/03/29 03:59:47;;;;;;;3.20;1.70;;;4.20;99.90;;;;;;1877050;75;21583;-74
2021/03/29 04:02:13;;;;;;;1.70;1.40;;;4.10;99.90;;;;;;1877498;75;21508;-74
2021/03/29 04:04:39;;;;;;;3.87;1.77;;;4.10;99.90;;;;;;1877836;75;21489;-75
2021/03/29 04:07:06;;;;;;;3.05;1.70;;;4.00;99.90;;;;;;1878348;75;21054;-74
2021/03/29 04:12:05;;;;;;;2.40;1.80;;;4.00;99.90;;;;;;1877175;75;21050;-74
2021/03/29 04:14:27;;;;;;;6.00;1.87;;;3.90;99.90;;;;;;1876300;75;21454;-74
2021/03/29 04:16:53;;;;;;;2.47;1.55;;;3.90;99.90;;;;;;1880275;76;21481;-74
2021/03/29 04:19:20;;;;;;;2.50;1.70;;;3.90;99.90;;;;;;1877142;75;21082;-73
2021/03/29 04:21:46;;;;;;;1.57;1.22;;;3.90;99.90;;;;;;1879681;75;21081;-74
2021/03/29 04:24:12;;;;;;;4.10;1.67;;;3.90;99.90;;;;;;1878325;75;21163;-74
2021/03/29 04:26:41;;;;;;;3.45;1.98;;;3.90;99.90;;;;;;1877395;75;21078;-73
2021/03/29 04:29:06;;;;;;;4.62;1.57;;;4.00;99.90;;;;;;1876468;76;21514;-73
2021/03/29 04:31:32;;;;;;;2.25;1.52;;;4.00;99.90;;;;;;1877312;75;21073;-74
2021/03/29 04:33:58;;;;;;;5.85;1.77;;;4.00;99.90;;;;;;1876851;75;21129;-74
2021/03/29 04:36:24;;;;;;;2.55;1.52;;;4.00;99.90;;;;;;1877290;75;21058;-73
2021/03/29 04:38:50;;;;;;;4.67;2.10;;;4.10;99.90;;;;;;1877832;75;21092;-73
2021/03/29 04:41:16;;;;;;;8.38;2.10;;;4.10;99.90;;;;;;1877155;75;21139;-74
2021/03/29 04:43:42;;;;;;;3.75;1.80;;;4.20;99.90;;;;;;1878208;75;21124;-73
2021/03/29 04:46:09;;;;;;;6.83;1.92;;;4.20;99.90;;;;;;1879023;75;21045;-73
2021/03/29 04:48:35;;;;;;;3.60;1.80;;;4.20;99.90;;;;;;1879353;75;21081;-73
2021/03/29 04:51:01;;;;;;;4.35;1.70;;;4.30;99.90;;;;;;1876715;75;21073;-74
2021/03/29 04:53:27;;;;;;;5.53;1.87;;;4.40;99.90;;;;;;1877330;75;21082;-74
2021/03/29 04:55:53;;;;;;;3.67;1.85;;;4.40;99.90;;;;;;1878002;75;21073;-74
2021/03/29 04:58:19;;;;;;;9.10;1.90;;;4.50;99.90;;;;;;1877295;75;21615;-74
2021/03/29 05:00:45;;;;;;;4.22;2.02;;;4.50;99.90;;;;;;1877737;75;21544;-74
2021/03/29 05:03:11;;;;;;;6.50;2.10;;;4.50;99.90;;;;;;1876945;75;21450;-74
2021/03/29 05:05:37;;;;;;;3.55;1.67;;;4.40;99.90;;;;;;1878367;75;21169;-74
2021/03/29 05:08:04;;;;;;;3.17;1.32;;;4.50;99.90;;;;;;1881443;75;21073;-74
2021/03/29 05:10:30;;;;;;;8.83;1.82;;;4.40;99.90;;;;;;1878032;75;21085;-73
2021/03/29 05:12:57;;;;;;;4.10;1.87;;;4.50;99.90;;;;;;1876869;75;21086;-74
2021/03/29 05:15:24;;;;;;;5.17;2.27;;;4.50;99.90;;;;;;1876664;75;21317;-73
2021/03/29 05:17:50;;;;;;;3.00;2.25;;;4.50;99.90;;;;;;1985290;70;21069;-74
2021/03/29 05:20:17;;;;;;;5.47;1.70;;;4.60;99.90;;;;;;1993128;71;21056;-74
2021/03/29 05:22:43;;;;;;;3.42;1.92;;;4.50;99.90;;;;;;1993849;71;21137;-74
2021/03/29 05:25:09;;;;;;;7.62;2.25;;;4.60;99.90;;;;;;2001663;71;21179;-72
2021/03/29 05:27:35;;;;;;;8.30;1.90;;;4.60;99.90;;;;;;1998592;70;21365;-74
2021/03/29 05:30:01;;;;;;;7.22;2.05;;;4.70;99.90;;;;;;1993242;71;21469;-73
2021/03/29 05:32:27;;;;;;;5.58;2.70;;;4.80;99.90;;;;;;2000381;71;21518;-74
2021/03/29 05:34:53;;;;;;;4.83;2.60;;;4.80;99.90;;;;;;1986040;71;21127;-74
2021/03/29 05:37:19;;;;;;;8.63;2.47;;;4.90;99.90;;;;;;1958967;71;21053;-73
2021/03/29 05:39:46;;;;;;;8.13;2.45;;;5.00;99.90;;;;;;1966272;72;21147;-74
2021/03/29 05:42:12;;;;;;;5.53;2.58;;;5.10;99.90;;;;;;1965648;71;21062;-74
2021/03/29 05:44:38;;;;;;;10.08;2.62;;;5.10;99.90;;;;;;1998855;71;21026;-74
2021/03/29 05:47:04;;;;;;;3.67;2.10;;;5.20;99.90;;;;;;1995365;71;21129;-74
2021/03/29 05:49:30;;;;;;;4.50;2.33;;;5.20;99.90;;;;;;2009426;70;21125;-74
2021/03/29 05:51:56;;;;;;;10.13;2.47;;;5.30;99.90;;;;;;1995585;71;21127;-73
2021/03/29 05:54:22;;;;;;;8.08;2.35;;;5.50;99.90;;;;;;2008767;70;21133;-74
2021/03/29 05:56:50;;;;;;;6.53;2.50;;;5.50;99.90;;;;;;1964720;71;21143;-73
2021/03/29 06:01:44;;;;;;;4.25;2.45;;;5.60;99.90;;;;;;1973565;71;21097;-74
2021/03/29 06:04:10;;;;;;;9.23;1.87;;;5.60;99.90;;;;;;1979146;71;21034;-74
2021/03/29 06:06:36;;;;;;;3.00;2.20;;;5.60;99.90;;;;;;1966254;72;21060;-74
2021/03/29 06:09:02;;;;;;;5.10;2.12;;;5.60;99.90;;;;;;1950741;72;21075;-74
2021/03/29 06:11:28;;;;;;;5.12;2.12;;;5.70;99.90;;;;;;1987734;71;21477;-73
2021/03/29 06:13:54;;;;;;;4.58;2.50;;;5.80;99.90;;;;;;1995892;71;21493;-74
2021/03/29 06:16:20;;;;;;;3.17;2.10;;;5.80;99.90;;;;;;1984873;71;21057;-74
2021/03/29 06:18:47;;;;;;;5.53;2.27;;;5.90;99.90;;;;;;1981378;72;21073;-73
2021/03/29 06:21:13;;;;;;;5.42;2.33;;;5.90;99.90;;;;;;1932670;72;21095;-75
2021/03/29 06:23:40;;;;;;;9.78;2.67;;;5.80;99.90;;;;;;1932705;71;21088;-72
2021/03/29 06:26:07;;;;;;;4.97;2.42;;;5.80;99.90;;;;;;1940489;71;21515;-73
2021/03/29 06:28:33;;;;;;;8.48;2.08;;;5.80;99.90;;;;;;1979924;72;21484;-73
2021/03/29 06:30:59;;;;;;;9.68;2.25;;;5.90;99.90;;;;;;1937328;72;21144;-74
2021/03/29 06:33:25;;;;;;;5.62;2.08;;;6.00;99.90;;;;;;1981966;72;21171;-74
2021/03/29 06:35:55;;;;;;;12.28;2.33;;;6.20;99.90;;;;;;1985618;72;21138;-74
2021/03/29 06:38:19;;;;;;;11.78;2.45;;;6.30;99.90;;;;;;1955971;71;21587;-75
2021/03/29 06:40:45;;;;;;;6.15;2.37;;;6.40;99.90;;;;;;1972136;72;21501;-74
2021/03/29 06:43:11;;;;;;;5.03;2.05;;;6.60;99.90;;;;;;1932379;72;21376;-74
2021/03/29 06:45:37;;;;;;;7.28;2.17;;;6.80;99.90;;;;;;1961764;71;21066;-75
2021/03/29 06:48:03;;;;;;;6.33;2.15;;;6.90;99.90;;;;;;1975863;71;21060;-73
2021/03/29 06:50:29;;;;;;;10.98;2.37;;;6.90;99.90;;;;;;1976429;72;21060;-73
2021/03/29 06:52:57;;;;;;;7.15;2.83;;;6.80;99.90;;;;;;1984554;72;21141;-74
2021/03/29 06:55:23;;;;;;;6.15;2.15;;;6.90;99.90;;;;;;1973544;71;21138;-73
2021/03/29 06:57:49;;;;;;;6.83;2.05;;;7.00;99.90;;;;;;1962915;71;21062;-73
2021/03/29 07:00:15;;;;;;;3.12;2.12;;;7.00;99.90;;;;;;1935241;71;21299;-73
2021/03/29 07:02:41;;;;;;;10.28;2.42;;;7.10;99.90;;;;;;1931405;72;21080;-73
2021/03/29 07:05:08;;;;;;;15.43;2.27;;;7.10;99.90;;;;;;1940003;72;21076;-73
2021/03/29 07:07:34;;;;;;;5.75;2.37;;;7.10;99.90;;;;;;1923679;72;21079;-73
2021/03/29 07:10:01;;;;;;;4.65;2.15;;;7.20;99.90;;;;;;1943593;72;21045;-73
2021/03/29 07:12:28;;;;;;;2.65;1.92;;;7.30;99.90;;;;;;1907157;73;22462;-73
2021/03/29 07:14:55;;;;;;;4.15;2.15;;;7.40;99.90;;;;;;1914697;72;21308;-73
2021/03/29 07:17:21;;;;;;;7.30;2.95;;;7.50;99.90;;;;;;1950336;73;21550;-72
2021/03/29 07:19:49;;;;;;;3.75;2.20;;;7.60;99.90;;;;;;1923810;73;21159;-72
2021/03/29 07:22:15;;;;;;;5.72;2.00;;;7.90;99.90;;;;;;1938387;72;21080;-73
2021/03/29 07:24:41;;;;;;;5.40;2.47;;;8.10;99.90;;;;;;1941361;73;21087;-71
2021/03/29 07:27:07;;;;;;;2.95;2.08;;;8.10;99.90;;;;;;1915888;73;21610;-72
2021/03/29 07:29:33;;;;;;;3.05;1.90;;;8.10;99.90;;;;;;1938385;72;21482;-72
2021/03/29 07:31:59;;;;;;;8.28;2.17;;;8.20;99.90;;;;;;1909658;72;21064;-72
2021/03/29 07:34:26;;;;;;;3.27;1.90;;;8.20;99.90;;;;;;1914438;72;21187;-72
2021/03/29 07:36:52;;;;;;;3.95;2.05;;;8.50;99.90;;;;;;1918138;72;21080;-71
2021/03/29 07:39:18;;;;;;;6.28;2.55;;;8.70;99.90;;;;;;1928774;72;21081;-71
2021/03/29 07:41:44;;;;;;;7.55;2.55;;;8.90;99.90;;;;;;1944927;73;21072;-72
2021/03/29 07:44:10;;;;;;;5.30;2.40;;;9.10;99.90;;;;;;1928921;72;21152;-71
2021/03/29 07:46:36;;;;;;;5.40;2.20;;;9.50;99.90;;;;;;1915039;73;21077;-71
2021/03/29 07:49:03;;;;;;;7.28;2.37;;;9.60;99.90;;;;;;1947818;73;21511;-76
2021/03/29 07:51:29;;;;;;;7.30;2.35;;;9.80;99.90;;;;;;1945807;73;21071;-75
2021/03/29 07:54:00;;;;;;;10.93;2.25;;;9.90;99.90;;;;;;1947629;73;21049;-77
2021/03/29 07:56:23;;;;;;;5.30;2.05;;;9.90;99.90;;;;;;1916736;72;21569;-75
2021/03/29 07:58:49;;;;;;;4.92;1.82;;;10.10;99.90;;;;;;1926159;72;21620;-74
2021/03/29 08:01:16;;;;;;;3.83;1.50;;;10.30;99.90;;;;;;1915628;72;21502;-74
2021/03/29 08:03:43;;;;;;;6.62;2.40;;;10.40;99.90;;;;;;1907317;72;21083;-75
2021/03/29 08:06:09;;;;;;;4.50;1.77;;;10.40;99.90;;;;;;1899620;73;21493;-76
2021/03/29 08:08:35;;;;;;;3.25;1.72;;;10.70;99.90;;;;;;1899594;72;21078;-76
2021/03/29 08:11:01;;;;;;;5.90;1.62;;;10.90;99.90;;;;;;1915948;73;21068;-76
2021/03/29 08:13:27;;;;;;;7.17;2.20;;;11.20;99.90;;;;;;1940232;72;21076;-75
2021/03/29 08:15:53;;;;;;;2.60;1.77;;;11.30;99.90;;;;;;1908763;72;21074;-77
2021/03/29 08:18:20;;;;;;;2.65;1.90;;;11.40;99.90;;;;;;1932147;72;21045;-79
2021/03/29 08:20:53;;;;;;;11.30;2.05;;;11.40;99.90;;;;;;1940636;72;21075;-78
2021/03/29 08:23:13;;;;;;;9.20;1.72;;;11.60;99.90;;;;;;1946598;73;21109;-77
2021/03/29 08:25:40;;;;;;;4.53;1.80;;;12.10;99.90;;;;;;1941709;72;21079;-76
2021/03/29 08:28:06;;;;;;;6.62;2.00;;;12.50;99.90;;;;;;1912937;72;21070;-78
2021/03/29 08:30:32;;;;;;;2.47;1.67;;;12.90;99.90;;;;;;1915096;72;21082;-77
2021/03/29 08:32:58;;;;;;;7.65;1.75;;;12.80;99.90;;;;;;1916170;72;21070;-78
2021/03/29 08:35:24;;;;;;;3.77;2.00;;;13.00;99.90;;;;;;1939965;72;21144;-75
2021/03/29 08:37:50;;;;;;;2.70;1.80;;;12.90;99.90;;;;;;1924902;73;21207;-75
2021/03/29 08:40:16;;;;;;;5.05;1.82;;;13.20;99.90;;;;;;1925958;73;21148;-74
2021/03/29 08:42:42;;;;;;;10.82;1.75;;;12.90;99.90;;;;;;1906041;73;21076;-75
2021/03/29 08:45:09;;;;;;;6.83;1.98;;;12.90;99.90;;;;;;1899573;74;21051;-76
2021/03/29 08:47:35;;;;;;;4.92;1.95;;;13.40;99.90;;;;;;1941848;72;21473;-76
2021/03/29 08:50:01;;;;;;;3.45;1.82;;;13.30;99.90;;;;;;1950249;73;21503;-76
2021/03/29 08:52:27;;;;;;;5.83;1.75;;;13.90;99.90;;;;;;1929422;72;21482;-75
2021/03/29 08:54:53;;;;;;;3.72;1.60;;;14.40;99.90;;;;;;1899555;74;21509;-75
2021/03/29 08:57:19;;;;;;;2.65;1.72;;;14.40;99.90;;;;;;1917776;73;21439;-74
2021/03/29 08:59:45;;;;;;;3.77;1.75;;;14.10;99.90;;;;;;1907275;73;21132;-74
2021/03/29 09:02:12;;;;;;;6.33;1.60;;;14.20;99.90;;;;;;1914892;72;21064;-75
2021/03/29 09:04:38;;;;;;;10.75;2.40;;;14.80;99.90;;;;;;1941996;73;21084;-76
2021/03/29 09:07:04;;;;;;;6.50;2.10;;;15.20;99.90;;;;;;1924969;73;21068;-76
2021/03/29 09:09:30;;;;;;;6.22;1.85;;;15.00;99.90;;;;;;1912382;72;21159;-76
2021/03/29 09:11:56;;;;;;;7.35;1.90;;;15.50;99.90;;;;;;1939049;72;21108;-76
2021/03/29 09:14:22;;;;;;;5.97;1.90;;;15.60;99.90;;;;;;1919242;72;21163;-74
2021/03/29 09:16:48;;;;;;;5.42;2.20;;;15.40;99.90;;;;;;1928795;72;21154;-75
2021/03/29 09:19:14;;;;;;;8.78;1.65;;;16.00;99.90;;;;;;1917466;72;21082;-76
2021/03/29 09:21:41;;;;;;;6.80;1.82;;;16.20;99.90;;;;;;1913306;72;21093;-76
2021/03/29 09:24:07;;;;;;;2.70;1.42;;;16.60;99.90;;;;;;1941161;72;21096;-76
2021/03/29 09:26:33;;;;;;;4.08;1.50;;;16.70;99.90;;;;;;1951522;73;21199;-74
2021/03/29 09:28:59;;;;;;;3.92;1.60;;;16.90;99.90;;;;;;1923803;73;21492;-74
2021/03/29 09:31:25;;;;;;;3.08;1.22;;;17.20;99.90;;;;;;1950411;72;21149;-73
2021/03/29 09:33:52;;;;;;;2.22;1.05;;;17.20;99.90;;;;;;1908462;73;21151;-74
2021/03/29 09:36:18;;;;;;;6.58;1.50;;;17.30;98.30;;;;;;1907557;72;21141;-74
2021/03/29 09:38:44;;;;;;;2.20;1.35;;;17.70;97.70;;;;;;1914642;72;21164;-74
2021/03/29 09:41:10;;;;;;;3.98;1.82;;;17.90;96.60;;;;;;1933431;72;21068;-74
2021/03/29 09:43:37;;;;;;;5.37;1.15;;;18.20;96.40;;;;;;1907410;73;21051;-76
2021/03/29 09:46:03;;;;;;;6.50;1.62;;;18.40;94.80;;;;;;1922742;72;21106;-77
2021/03/29 09:48:29;;;;;;;5.70;1.20;;;18.10;94.40;;;;;;1914117;73;21168;-74
2021/03/29 09:50:55;;;;;;;8.15;1.50;;;18.60;92.00;;;;;;1944059;73;21076;-74
2021/03/29 09:53:24;;;;;;;5.92;1.80;;;18.20;92.00;;;;;;1906635;72;21094;-76
2021/03/29 09:55:51;;;;;;;5.15;1.22;;;17.90;92.80;;;;;;1910500;72;21049;-74
2021/03/29 09:58:17;;;;;;;4.37;1.72;;;18.10;91.20;;;;;;1947404;72;21049;-75
2021/03/29 10:00:46;;;;;;;2.77;1.12;;;18.40;91.60;;;;;;1952881;73;21076;-77
2021/03/29 10:03:12;;;;;;;4.28;1.70;;;18.60;91.00;;;;;;1911090;72;21047;-76
2021/03/29 10:05:41;;;;;;;3.90;0.90;;;18.50;90.40;;;;;;1929007;72;21076;-77
2021/03/29 10:08:07;;;;;;;1.47;1.05;;;18.80;90.80;;;;;;1927431;72;21099;-73
2021/03/29 10:10:33;;;;;;;12.53;1.80;;;19.30;89.00;;;;;;1923022;72;21041;-74
2021/03/29 10:12:59;;;;;;;6.65;0.88;;;18.80;87.50;;;;;;1923165;72;21645;-74
2021/03/29 10:15:26;;;;;;;1.42;0.70;;;19.10;86.90;;;;;;1932661;72;21084;-75
2021/03/29 10:17:52;;;;;;;3.17;1.20;;;18.90;86.60;;;;;;1914954;72;21097;-75
2021/03/29 10:20:18;;;;;;;2.08;0.90;;;19.00;84.00;;;;;;1949200;72;21150;-75
2021/03/29 10:22:44;;;;;;;1.32;0.93;;;19.10;82.30;;;;;;1950146;73;21162;-75
2021/03/29 10:25:15;;;;;;;3.58;1.40;;;19.40;84.00;;;;;;1922437;73;21122;-76
2021/03/29 10:27:38;;;;;;;3.10;1.15;;;18.70;79.30;;;;;;1940574;73;21097;-74
2021/03/29 10:30:04;;;;;;;1.95;0.68;;;18.90;76.50;;;;;;1924964;72;21076;-75
2021/03/29 10:32:30;;;;;;;2.42;0.68;;;19.30;76.20;;;;;;1948965;72;21072;-76
2021/03/29 10:34:56;;;;;;;1.57;0.72;;;20.10;68.60;;;;;;1949350;73;21081;-76
2021/03/29 10:37:23;;;;;;;1.85;0.60;;;19.60;70.30;;;;;;1952045;73;21045;-76
2021/03/29 10:39:49;;;;;;;4.05;0.53;;;20.30;70.50;;;;;;1946704;73;21076;-75
2021/03/29 10:42:15;;;;;;;0.53;0.50;;;20.80;66.70;;;;;;1943591;73;21096;-76
2021/03/29 10:44:41;;;;;;;2.90;0.70;;;21.40;65.00;;;;;;1950420;73;21068;-75
2021/03/29 10:47:08;;;;;;;3.62;0.70;;;21.30;62.50;;;;;;1940346;73;21080;-75
2021/03/29 10:49:34;;;;;;;2.35;0.60;;;20.40;64.70;;;;;;1947097;73;21142;-75
2021/03/29 10:52:00;;;;;;;6.62;1.35;;;20.30;64.30;;;;;;1940105;73;21127;-76
2021/03/29 10:54:26;;;;;;;1.65;0.82;;;20.10;64.60;;;;;;1907260;72;21193;-76
2021/03/29 10:56:52;;;;;;;4.35;0.65;;;20.50;63.90;;;;;;1914134;72;21072;-75
2021/03/29 10:59:18;;;;;;;2.27;0.70;;;20.70;63.70;;;;;;1909177;72;21081;-76
2021/03/29 11:01:44;;;;;;;2.47;0.80;;;20.40;60.80;;;;;;1921877;73;21074;-74
2021/03/29 11:04:11;;;;;;;1.95;0.60;;;19.50;63.30;;;;;;1932528;73;21082;-75
2021/03/29 11:06:37;;;;;;;5.22;0.98;;;19.50;63.80;;;;;;1907051;73;21125;-78
2021/03/29 11:09:03;;;;;;;2.12;0.75;;;19.50;63.50;;;;;;1911036;72;21500;-73
2021/03/29 11:11:29;;;;;;;1.82;0.70;;;20.00;63.10;;;;;;1932586;72;21458;-73
2021/03/29 11:13:55;;;;;;;3.70;1.20;;;20.40;61.00;;;;;;1949117;73;21488;-76
2021/03/29 11:16:23;;;;;;;0.80;0.70;;;20.90;60.00;;;;;;1915466;72;21498;-75
2021/03/29 11:18:49;;;;;;;4.22;0.98;;;20.90;60.00;;;;;;1948490;73;21142;-74
2021/03/29 11:21:17;;;;;;;4.95;0.57;;;20.70;59.30;;;;;;1928331;73;21098;-75
2021/03/29 11:23:43;;;;;;;0.88;0.40;;;21.50;58.70;;;;;;1949472;73;21127;-76
2021/03/29 11:26:09;;;;;;;2.10;0.93;;;22.10;56.90;;;;;;1916811;72;21078;-76
2021/03/29 11:28:35;;;;;;;13.00;1.50;;;22.30;55.00;;;;;;1948743;73;21167;-77
2021/03/29 11:31:01;;;;;;;2.58;1.10;;;22.20;54.30;;;;;;1933936;73;21082;-75
2021/03/29 11:33:27;;;;;;;4.78;0.68;;;22.30;53.70;;;;;;1907289;72;21135;-76
2021/03/29 11:35:53;;;;;;;2.25;0.35;;;21.60;53.70;;;;;;1914846;72;21165;-77
2021/03/29 11:38:20;;;;;;;0.98;0.50;;;21.40;55.10;;;;;;1910705;72;21066;-77
2021/03/29 11:40:46;;;;;;;2.42;0.70;;;21.50;53.70;;;;;;1932834;73;21082;-77
2021/03/29 11:43:12;;;;;;;4.47;0.85;;;21.60;54.50;;;;;;1931668;72;21186;-77
2021/03/29 11:45:38;;;;;;;3.80;0.80;;;21.80;54.40;;;;;;1941179;72;21081;-77
2021/03/29 11:48:04;;;;;;;1.75;0.72;;;22.60;52.10;;;;;;1931521;72;21074;-76
2021/03/29 11:50:30;;;;;;;2.08;0.70;;;23.60;51.70;;;;;;1899727;74;21085;-77
2021/03/29 11:52:58;;;;;;;0.90;0.62;;;24.30;49.00;;;;;;1899740;72;21550;-77
2021/03/29 11:55:24;;;;;;;2.33;0.60;;;23.60;48.80;;;;;;1932831;72;21490;-77
2021/03/29 11:57:52;;;;;;;3.20;0.42;;;23.40;49.00;;;;;;1942906;72;21150;-77
2021/03/29 12:00:26;;;;;;;1.12;0.70;;;23.10;49.60;;;;;;1951958;73;21536;-77
2021/03/29 12:05:31;;;;;;;1.52;0.60;;;23.40;49.30;;;;;;1931852;72;21488;-77
2021/03/29 12:13:24;;;;;;;4.90;0.57;;;24.20;46.40;;;;;;1941404;72;21068;-76
2021/03/29 12:15:52;;;;;;;7.97;0.80;;;24.60;45.30;;;;;;1935355;72;21062;-77
2021/03/29 12:18:36;;;;;;;5.78;0.90;;;24.20;45.90;;;;;;1923269;73;21200;-76
2021/03/29 12:20:48;;;;;;;2.25;0.72;;;23.40;46.30;;;;;;1919829;72;21130;-76
2021/03/29 12:23:16;;;;;;;1.70;0.50;;;23.80;49.30;;;;;;1945478;73;21069;-74
2021/03/29 12:25:42;;;;;;;1.05;0.50;;;24.10;46.00;;;;;;1937250;72;21122;-73
2021/03/29 12:28:08;;;;;;;2.27;0.70;;;24.10;44.70;;;;;;1899560;72;21189;-73
2021/03/29 12:30:34;;;;;;;2.30;0.90;;;23.20;45.80;;;;;;1925080;73;21043;-73
2021/03/29 12:33:00;;;;;;;3.77;0.68;;;22.80;46.50;;;;;;1911557;72;21558;-76
2021/03/29 12:35:26;;;;;;;2.22;0.85;;;23.10;46.10;;;;;;1938544;73;21521;-76
2021/03/29 12:37:53;;;;;;;4.65;0.55;;;23.30;46.90;;;;;;1910018;72;21111;-76
2021/03/29 12:40:23;;;;;;;1.02;0.60;;;24.40;46.40;;;;;;1920709;72;21155;-76
2021/03/29 12:45:24;;;;;;;1.72;0.55;;;24.10;43.50;;;;;;1960185;72;21034;-77
2021/03/29 12:47:51;;;;;;;5.80;0.65;;;24.20;43.40;;;;;;1922879;74;21111;-77
2021/03/29 12:50:17;;;;;;;10.32;0.72;;;24.60;41.60;;;;;;1920704;73;21248;-77
2021/03/29 12:52:43;;;;;;;4.90;0.72;;;24.70;43.00;;;;;;1925268;73;21250;-76
2021/03/29 12:55:11;;;;;;;1.00;0.23;;;25.50;42.10;;;;;;1959629;72;21154;-76
2021/03/29 12:57:37;;;;;;;2.37;0.53;;;25.80;40.80;;;;;;1934666;72;21127;-75
2021/03/29 13:00:03;;;;;;;0.68;0.35;;;25.80;39.60;;;;;;1939354;73;21049;-76
2021/03/29 13:02:29;;;;;;;0.50;0.42;;;25.40;39.50;;;;;;1941039;72;21085;-76